»·PEaware :: DAL1082 KDEN-KAMA

DAL1082 :: KDEN-KAMA

FLIGHT INFORMATION

Flight Status: Arrived
Operator:
Delta Air Lines
More flights by this operator :: More flights under this callsign
Pilot: Matt C. (5456)
Aircraft: BOEING 737-800
(B738)
More flights by this aircraft type
Origin: KDEN Denver Intl
United States
Destination: KAMA Amarillo Intl
United States
More flights between these airports :: More routes between these airports
Route: STAKR3 PYPER KENTO PNH
File this flight plan on PilotEdge
Remarks:
Altitude:
(Current/Filed)
35,000ft
Speed:
(Current/Filed)
450kts
Departed: 21-Aug-17 09:02 PM
Arrived: 21-Aug-17 09:56 PM
Distance/Time
Traveled:
312nm/0:54
Distance/Time
To Go:
Arrived

Flight Plot

Page will automatically refresh every two minutes.

Flight plan parsing failed; only flown route is shown


Map Options




Map Legend


Flown Route
Filed Route
Departure Airport
Arrival Airport
Navaid (VOR, NDB)
Fix

Horizontal Profiles

Position Reports

Time Latitude Longitude Heading Altitude Ground
Speed
21-Aug-17 20:44 39.862484 -104.671547 359 5438ft 0kts
21-Aug-17 20:45 39.862484 -104.671547 359 5438ft 0kts
21-Aug-17 20:46 39.862484 -104.671547 359 5438ft 0kts
21-Aug-17 20:47 39.862484 -104.671547 359 5438ft 0kts
21-Aug-17 20:48 39.862484 -104.671547 359 5438ft 0kts
21-Aug-17 20:49 39.862484 -104.671547 359 5438ft 0kts
21-Aug-17 20:50 39.862484 -104.671547 359 5438ft 0kts
21-Aug-17 20:51 39.862484 -104.671547 359 5438ft 0kts
21-Aug-17 20:52 39.862484 -104.671547 359 5438ft 0kts
21-Aug-17 20:53 39.862484 -104.671547 359 5438ft 0kts
21-Aug-17 20:54 39.862484 -104.671547 359 5438ft 0kts
21-Aug-17 20:55 39.862171 -104.671436 327 5438ft 2kts
21-Aug-17 20:56 39.861882 -104.670808 272 5439ft 1kts
21-Aug-17 20:57 39.861881 -104.670742 268 5438ft 0kts
21-Aug-17 20:58 39.861881 -104.670742 268 5438ft 0kts
21-Aug-17 20:59 39.861881 -104.670742 268 5438ft 0kts
21-Aug-17 21:00 39.861884 -104.671710 271 5439ft 7kts
21-Aug-17 21:01 39.861349 -104.676336 268 5439ft 16kts
21-Aug-17 21:02 39.861367 -104.680953 270 5439ft 10kts
21-Aug-17 21:03 39.861454 -104.684764 300 5438ft 11kts
21-Aug-17 21:04 39.864040 -104.685189 325 5439ft 7kts
21-Aug-17 21:05 39.865299 -104.687189 0 5439ft 21kts
21-Aug-17 21:06 39.901796 -104.687678 357 6332ft 187kts
21-Aug-17 21:07 39.929256 -104.755672 255 7544ft 293kts
21-Aug-17 21:08 39.869233 -104.818358 205 9966ft 299kts
21-Aug-17 21:09 39.801400 -104.890038 223 10752ft 339kts
21-Aug-17 21:10 39.717511 -104.923810 172 14224ft 330kts
21-Aug-17 21:11 39.640293 -104.908283 169 16618ft 345kts
21-Aug-17 21:12 39.549461 -104.852119 152 18866ft 377kts
21-Aug-17 21:13 39.454365 -104.794908 159 21417ft 388kts
21-Aug-17 21:14 39.359941 -104.728178 139 23660ft 402kts
21-Aug-17 21:15 39.276698 -104.630820 138 25737ft 414kts
21-Aug-17 21:16 39.192195 -104.529983 139 27769ft 419kts
21-Aug-17 21:17 39.098544 -104.453469 167 29962ft 399kts
21-Aug-17 21:18 38.993075 -104.420666 171 31790ft 391kts
21-Aug-17 21:19 38.888485 -104.391402 172 33391ft 385kts
21-Aug-17 21:20 38.788010 -104.363645 173 34751ft 380kts
21-Aug-17 21:21 38.686731 -104.335699 171 35400ft 390kts
21-Aug-17 21:22 38.594192 -104.254532 146 35415ft 430kts
21-Aug-17 21:23 38.503458 -104.157541 145 35412ft 453kts
21-Aug-17 21:24 38.406876 -104.053576 145 35192ft 463kts
21-Aug-17 21:25 38.308717 -103.948284 145 35188ft 464kts
21-Aug-17 21:26 38.228593 -103.862627 145 35184ft 465kts
21-Aug-17 21:27 38.130297 -103.757881 145 35184ft 464kts
21-Aug-17 21:28 38.025034 -103.671595 163 35197ft 451kts
21-Aug-17 21:29 37.909106 -103.617091 165 35185ft 448kts
21-Aug-17 21:30 37.796470 -103.566267 166 35187ft 447kts
21-Aug-17 21:31 37.680685 -103.514530 166 35189ft 447kts
21-Aug-17 21:32 37.564287 -103.462617 166 35189ft 447kts
21-Aug-17 21:33 37.448281 -103.411044 166 35189ft 447kts
21-Aug-17 21:34 37.329863 -103.358686 163 35201ft 468kts
21-Aug-17 21:35 37.209863 -103.305598 164 35183ft 468kts
21-Aug-17 21:36 37.088114 -103.252013 164 35183ft 468kts
21-Aug-17 21:37 36.966585 -103.198708 164 35183ft 468kts
21-Aug-17 21:38 36.845947 -103.145979 164 35181ft 469kts
21-Aug-17 21:39 36.726845 -103.084330 148 35256ft 476kts
21-Aug-17 21:40 36.621220 -102.987171 144 35237ft 477kts
21-Aug-17 21:41 36.516614 -102.888090 144 35238ft 477kts
21-Aug-17 21:42 36.411471 -102.788679 144 33338ft 479kts
21-Aug-17 21:43 36.307100 -102.690353 143 30907ft 479kts
21-Aug-17 21:44 36.201555 -102.591221 142 28483ft 481kts
21-Aug-17 21:45 36.095556 -102.491977 142 26066ft 485kts
21-Aug-17 21:46 35.989270 -102.392801 142 24225ft 484kts
21-Aug-17 21:47 35.883677 -102.294594 142 24182ft 489kts
21-Aug-17 21:48 35.777661 -102.196497 142 21758ft 455kts
21-Aug-17 21:49 35.686872 -102.112660 142 18720ft 379kts
21-Aug-17 21:50 35.607314 -102.039355 143 15890ft 355kts
21-Aug-17 21:51 35.530807 -101.969164 142 13120ft 340kts
21-Aug-17 21:52 35.459232 -101.903538 142 10301ft 311kts
21-Aug-17 21:53 35.391548 -101.845487 148 7527ft 293kts
21-Aug-17 21:54 35.370616 -101.757452 95 5997ft 274kts
21-Aug-17 21:55 35.362688 -101.664690 119 5941ft 268kts
21-Aug-17 21:56 35.318353 -101.614766 145 5926ft 185kts
21-Aug-17 21:57 35.281088 -101.636074 227 4987ft 160kts
21-Aug-17 21:58 35.252296 -101.673284 222 4280ft 150kts
21-Aug-17 21:59 35.224474 -101.708223 225 3614ft 105kts
21-Aug-17 22:00 35.219053 -101.711911 135 3614ft 7kts
21-Aug-17 22:01 35.218511 -101.711266 127 3614ft 4kts
21-Aug-17 22:02 35.219791 -101.708981 45 3614ft 10kts
21-Aug-17 22:03 35.220482 -101.707123 140 3613ft 5kts
21-Aug-17 22:04 35.218976 -101.707178 112 3613ft 5kts
21-Aug-17 22:05 35.218837 -101.706747 108 3613ft 0kts

Navigation Log

Ident Type
Flight plan parsing failed, navigation log unavailable